Hamilton, Ontario

3:54 AM EST on February 14, 2016 (GMT -0500)
Durand | | Change Station
CLOSE
Current Station
Personal Weather Station
Location: Hamilton, ONTARIO
Elevation: 348 ft
Nearby Weather Stations

Elev 348 ft 43.25 °N, 79.88 °W | Updated 20 seconds ago

Mostly Cloudy
Mostly Cloudy
-4.2 °F
Feels Like -4 °F
N
1.0
Wind Variable Wind from NNE
Gusts 2.0 mph

Today is forecast to be nearly the same temperature as yesterday.

Today
High -- | Low -- °F
--% Chance of Precip.
Yesterday
High -- | Low -- °F
Precip. -- in
Pressure 30.54 in
Visibility 15.0 miles
Clouds Few 2000 ft
Mostly Cloudy 4900 ft
Windchill -4 °F
Dew Point -11 °F
Humidity 67%
Rainfall 0.00 in
Snow Depth Not available.
7:19 AM 5:48 PM
Waxing Crescent, 39% visible
METAR CYHM 140800Z 01008KT 15SM FEW020 BKN049 M22/M28 A3046 RMK CF1SC5 SLP340
Pressure 30.54 in
Visibility 15.0 miles
Clouds Few 2000 ft
Mostly Cloudy 4900 ft
Windchill -4 °F
Dew Point -11 °F
Humidity 67%
Rainfall 0.00 in
Snow Depth Not available.
7:19 AM 5:48 PM
Waxing Crescent, 39% visible
METAR CYHM 140800Z 01008KT 15SM FEW020 BKN049 M22/M28 A3046 RMK CF1SC5 SLP340
Nowcast |

Extreme cold warning in effect

×

10-Day Weather Forecast

Almanac

Astronomy

Feb. 14, 2016 Rise Set
Actual Time
Civil Twilight
Nautical Twilight
Astronomical Twilight
Moon
Length of Visible Light
Length of Day
Tomorrow will be .
, % of the Moon is Illuminated

Today's Extremes

Country Highs Country Lows

Community

WunderPhotos

Upload Photos

1,892,763 photos uploaded!

WunderBlog® & News

Nearby

Air Quality

  Air Quality AQ Index Pollutant
Not available.

Snow Depth

Station Depth Elevation

Earthquake Activity

City Distance Mag. Time & Date
Minimum magnitude displayed is 2.5.

Coastal Water Temperatures

Place Temperature

Stations

Nearby Weather Stations

Station Location Temp. Windchill Dew Point Humidity Wind Precip. Elev Updated Type
                   

Watches & Warnings

There are currently no watches in effect.